Time;durP1;ratioP1;P1;durP2;ratioP2;P2;SDS_P1;SDS_P2;PMS_P1;PMS_P2;Temp;Humidity;BMP_temperature;BMP_pressure;BME280_temperature;BME280_humidity;BME280_pressure;Samples;Min_cycle;Max_cycle;Signal;HPM_P1;HPM_P2
2022/07/21 00:00:15;;;;;;;31.98;22.88;;;21.50;99.90;;;;;;5062261;28;20230;-66
2022/07/21 00:02:41;;;;;;;34.85;22.63;;;21.60;99.90;;;;;;5071942;28;20194;-67
2022/07/21 00:05:08;;;;;;;30.85;23.48;;;21.70;99.90;;;;;;5061147;28;20190;-67
2022/07/21 00:07:35;;;;;;;35.88;24.00;;;21.70;99.90;;;;;;5064067;28;20190;-67
2022/07/21 00:10:02;;;;;;;34.00;23.48;;;21.70;99.90;;;;;;5063363;28;20597;-68
2022/07/21 00:12:29;;;;;;;29.50;21.00;;;21.70;99.90;;;;;;5063131;28;20194;-68
2022/07/21 00:14:56;;;;;;;31.08;20.45;;;21.70;99.90;;;;;;5066606;28;20214;-68
2022/07/21 00:17:22;;;;;;;27.98;20.42;;;21.70;99.90;;;;;;5067893;28;20205;-67
2022/07/21 00:19:50;;;;;;;29.15;20.45;;;21.70;99.90;;;;;;5062228;28;20308;-67
2022/07/21 00:22:17;;;;;;;28.42;21.10;;;21.60;99.90;;;;;;5063663;28;20202;-68
2022/07/21 00:24:43;;;;;;;29.60;20.88;;;21.70;99.90;;;;;;5060322;28;20202;-67
2022/07/21 00:27:10;;;;;;;31.00;22.50;;;21.70;99.90;;;;;;5073644;28;20195;-66
2022/07/21 00:29:36;;;;;;;31.42;23.35;;;21.80;99.90;;;;;;5065992;28;20582;-66
2022/07/21 00:32:05;;;;;;;35.58;24.13;;;21.90;99.90;;;;;;5062880;28;20201;-66
2022/07/21 00:34:33;;;;;;;33.28;22.70;;;22.10;99.90;;;;;;5058815;28;20207;-65
2022/07/21 00:36:59;;;;;;;30.75;22.95;;;22.00;99.90;;;;;;5067186;28;20202;-66
2022/07/21 00:39:26;;;;;;;33.50;22.92;;;21.90;99.90;;;;;;5064061;28;20220;-66
2022/07/21 00:41:53;;;;;;;34.45;20.52;;;22.00;99.90;;;;;;5067632;28;20507;-65
2022/07/21 00:44:24;;;;;;;24.83;19.77;;;21.90;99.90;;;;;;5066894;28;20206;-66
2022/07/21 00:46:51;;;;;;;28.48;19.80;;;21.90;99.90;;;;;;5068824;28;20643;-66
2022/07/21 00:49:19;;;;;;;32.35;23.30;;;21.80;99.90;;;;;;5068149;28;20205;-68
2022/07/21 00:51:47;;;;;;;33.25;23.05;;;21.80;99.90;;;;;;5064266;28;20215;-67
2022/07/21 00:54:18;;;;;;;32.63;22.17;;;21.90;99.90;;;;;;5066771;28;20186;-66
2022/07/21 00:56:45;;;;;;;27.08;19.40;;;21.90;99.90;;;;;;5064325;28;20194;-66
2022/07/21 00:59:12;;;;;;;25.80;18.98;;;21.90;99.90;;;;;;5066313;28;20201;-67
2022/07/21 01:01:39;;;;;;;26.55;18.08;;;21.90;99.90;;;;;;5060011;28;20214;-66
2022/07/21 01:04:06;;;;;;;26.17;18.48;;;21.80;99.90;;;;;;5066632;28;20194;-67
2022/07/21 01:06:32;;;;;;;24.45;17.80;;;21.80;99.90;;;;;;5066136;28;20194;-67
2022/07/21 01:08:59;;;;;;;25.70;18.40;;;21.70;99.90;;;;;;5066440;28;20202;-66
2022/07/21 01:11:29;;;;;;;23.67;17.27;;;21.70;99.90;;;;;;5065770;28;20297;-67
2022/07/21 01:13:56;;;;;;;23.90;17.13;;;21.70;99.90;;;;;;5066773;28;20206;-67
2022/07/21 01:16:23;;;;;;;27.50;19.60;;;21.60;99.90;;;;;;5063100;28;20232;-66
2022/07/21 01:18:51;;;;;;;27.33;20.88;;;21.60;99.90;;;;;;5063123;28;20198;-67
2022/07/21 01:21:34;;;;;;;26.10;18.77;;;21.60;99.90;;;;;;5070013;28;20256;-67
2022/07/21 01:24:01;;;;;;;27.45;19.15;;;21.60;99.90;;;;;;5063832;28;20186;-67
2022/07/21 01:26:29;;;;;;;23.15;17.38;;;21.60;99.90;;;;;;5063941;28;20675;-66
2022/07/21 01:28:57;;;;;;;26.50;19.73;;;21.60;99.90;;;;;;5061465;28;20202;-67
2022/07/21 01:31:24;;;;;;;26.13;18.35;;;21.60;99.90;;;;;;5064305;28;20233;-66
2022/07/21 01:33:51;;;;;;;22.67;16.92;;;21.60;99.90;;;;;;5059721;28;20286;-66
2022/07/21 01:36:18;;;;;;;22.00;16.00;;;21.60;99.90;;;;;;5067114;28;20561;-66
2022/07/21 01:41:34;;;;;;;11.60;8.98;;;21.60;99.90;;;;;;5062994;28;20226;-66
2022/07/21 01:44:03;;;;;;;9.18;7.18;;;21.50;99.90;;;;;;5059661;28;20193;-67
2022/07/21 01:46:32;;;;;;;9.33;7.57;;;21.20;99.90;;;;;;5065686;28;20199;-66
2022/07/21 01:48:59;;;;;;;10.83;7.30;;;21.10;99.90;;;;;;5064141;28;20198;-66
2022/07/21 01:51:26;;;;;;;10.05;7.28;;;21.10;99.90;;;;;;5066506;28;20242;-68
2022/07/21 01:53:53;;;;;;;10.50;6.83;;;20.90;99.90;;;;;;5063947;28;20274;-68
2022/07/21 01:56:24;;;;;;;10.17;6.87;;;20.90;99.90;;;;;;5066828;28;20214;-67
2022/07/21 01:58:54;;;;;;;11.30;7.22;;;20.90;99.90;;;;;;5065624;28;20205;-68
2022/07/21 02:01:24;;;;;;;10.33;6.33;;;20.70;99.90;;;;;;5060264;28;20308;-67
2022/07/21 02:03:50;;;;;;;8.80;6.40;;;20.70;99.90;;;;;;5068919;28;20670;-67
2022/07/21 02:06:17;;;;;;;8.53;6.80;;;20.70;99.90;;;;;;5061572;28;20277;-68
2022/07/21 02:08:44;;;;;;;9.43;6.40;;;20.70;99.90;;;;;;5068787;28;20195;-68
2022/07/21 02:11:12;;;;;;;8.63;6.30;;;20.60;99.90;;;;;;5059719;28;20218;-68
2022/07/21 02:13:40;;;;;;;7.97;6.23;;;20.50;99.90;;;;;;5067180;28;20202;-66
2022/07/21 02:16:07;;;;;;;9.33;6.27;;;20.50;99.90;;;;;;5064025;28;20577;-66
2022/07/21 02:18:34;;;;;;;7.37;6.20;;;20.50;99.90;;;;;;5062298;28;20291;-66
2022/07/21 02:21:01;;;;;;;7.10;5.17;;;20.50;99.90;;;;;;5057509;28;20218;-66
2022/07/21 02:23:28;;;;;;;8.30;5.40;;;20.40;99.90;;;;;;5065805;28;20646;-65
2022/07/21 02:25:55;;;;;;;6.83;5.63;;;20.30;99.90;;;;;;5062813;28;20197;-67
2022/07/21 02:28:21;;;;;;;8.20;5.30;;;20.30;99.90;;;;;;5070075;28;20197;-68
2022/07/21 02:30:48;;;;;;;7.10;5.03;;;20.20;99.90;;;;;;5070430;28;20253;-67
2022/07/21 02:33:16;;;;;;;7.17;5.10;;;20.10;99.90;;;;;;5064378;28;20658;-68
2022/07/21 02:35:44;;;;;;;6.53;4.70;;;20.00;99.90;;;;;;5070756;28;20205;-67
2022/07/21 02:38:11;;;;;;;7.50;4.93;;;20.00;99.90;;;;;;5068444;28;20198;-67
2022/07/21 02:40:38;;;;;;;6.30;5.20;;;20.00;99.90;;;;;;5059985;28;20225;-67
2022/07/21 02:43:05;;;;;;;6.17;4.53;;;19.90;99.90;;;;;;5062094;28;20186;-67
2022/07/21 02:45:33;;;;;;;5.80;4.43;;;20.10;99.90;;;;;;5068190;28;20194;-67
2022/07/21 02:48:08;;;;;;;5.73;4.87;;;20.20;99.90;;;;;;5064776;28;20221;-67
2022/07/21 02:50:37;;;;;;;6.30;4.80;;;20.30;99.90;;;;;;5060858;28;20634;-67
2022/07/21 02:53:11;;;;;;;6.17;4.73;;;20.40;99.90;;;;;;5066141;28;20198;-67
2022/07/21 02:55:39;;;;;;;6.03;4.73;;;20.40;99.90;;;;;;5067811;28;20700;-67
2022/07/21 02:58:09;;;;;;;6.17;4.50;;;20.50;99.90;;;;;;5065753;28;20202;-67
2022/07/21 03:00:39;;;;;;;5.60;4.83;;;20.50;99.90;;;;;;5066156;28;20218;-67
2022/07/21 03:03:07;;;;;;;5.63;4.82;;;20.70;99.90;;;;;;5068924;28;20613;-68
2022/07/21 03:05:35;;;;;;;5.95;5.00;;;20.60;99.90;;;;;;5064580;28;20190;-67
2022/07/21 03:08:03;;;;;;;8.70;5.60;;;20.60;99.90;;;;;;5064010;28;20273;-67
2022/07/21 03:10:29;;;;;;;8.67;5.17;;;20.40;99.90;;;;;;5066421;28;20214;-67
2022/07/21 03:12:57;;;;;;;6.70;5.53;;;20.40;99.90;;;;;;5068542;28;20610;-67
2022/07/21 03:15:25;;;;;;;6.60;5.30;;;20.30;99.90;;;;;;5066579;28;20206;-67
2022/07/21 03:17:53;;;;;;;7.10;5.17;;;20.30;99.90;;;;;;5067072;28;20213;-68
2022/07/21 03:20:26;;;;;;;6.67;5.43;;;20.30;99.90;;;;;;5064801;28;20230;-68
2022/07/21 03:22:52;;;;;;;6.50;5.00;;;20.20;99.90;;;;;;5063661;28;20205;-68
2022/07/21 03:25:20;;;;;;;7.27;5.27;;;20.20;99.90;;;;;;5066012;28;20201;-68
2022/07/21 03:27:48;;;;;;;6.10;5.40;;;20.10;99.90;;;;;;5066535;28;20201;-68
2022/07/21 03:30:16;;;;;;;7.47;5.50;;;20.10;99.90;;;;;;5065903;28;20221;-67
2022/07/21 03:32:44;;;;;;;9.10;5.93;;;20.10;99.90;;;;;;5066202;28;20210;-68
2022/07/21 03:35:12;;;;;;;8.50;5.30;;;20.00;99.90;;;;;;5069163;28;20198;-68
2022/07/21 03:37:51;;;;;;;7.83;5.77;;;19.90;99.90;;;;;;5059861;28;20229;-67
2022/07/21 03:40:23;;;;;;;7.30;5.57;;;19.90;99.90;;;;;;5067653;28;20218;-68
2022/07/21 03:42:55;;;;;;;8.67;6.37;;;19.90;99.90;;;;;;5057232;28;20195;-68
2022/07/21 03:45:24;;;;;;;8.27;5.57;;;19.80;99.90;;;;;;5064714;28;20203;-67
2022/07/21 03:47:51;;;;;;;10.37;6.17;;;19.80;99.90;;;;;;5065961;28;20201;-67
2022/07/21 03:50:17;;;;;;;9.17;5.80;;;19.90;99.90;;;;;;5068889;28;20218;-67
2022/07/21 03:52:45;;;;;;;8.80;6.33;;;19.90;99.90;;;;;;5064635;28;20217;-67
2022/07/21 03:55:18;;;;;;;9.27;6.13;;;19.90;99.90;;;;;;5065249;28;20194;-67
2022/07/21 03:57:48;;;;;;;8.17;6.20;;;19.90;99.90;;;;;;5067007;28;20198;-67
2022/07/21 04:00:21;;;;;;;7.83;5.93;;;19.90;99.90;;;;;;5062175;28;20674;-67
2022/07/21 04:02:48;;;;;;;8.93;5.83;;;19.90;99.90;;;;;;5070622;28;20213;-67
2022/07/21 04:05:16;;;;;;;7.73;6.10;;;19.90;99.90;;;;;;5067704;28;20194;-67
2022/07/21 04:07:45;;;;;;;9.57;6.43;;;19.90;99.90;;;;;;5060250;28;20201;-67
2022/07/21 04:10:13;;;;;;;7.70;5.83;;;19.90;99.90;;;;;;5066981;28;20386;-67
2022/07/21 04:12:40;;;;;;;7.67;6.00;;;19.90;99.90;;;;;;5065803;28;20194;-67
2022/07/21 04:15:09;;;;;;;7.87;6.10;;;20.00;99.90;;;;;;5067959;28;20697;-67
2022/07/21 04:17:37;;;;;;;8.23;6.47;;;20.00;99.90;;;;;;5067465;28;20671;-67
2022/07/21 04:20:05;;;;;;;8.37;6.03;;;20.10;99.90;;;;;;5066878;28;20219;-67
2022/07/21 04:22:32;;;;;;;7.72;6.00;;;20.10;99.90;;;;;;5068679;28;20194;-67
2022/07/21 04:24:59;;;;;;;7.77;5.90;;;20.10;99.90;;;;;;5068434;28;20197;-67
2022/07/21 04:27:27;;;;;;;7.93;6.30;;;20.10;99.90;;;;;;5067231;28;20248;-67
2022/07/21 04:29:54;;;;;;;9.60;6.70;;;20.10;99.90;;;;;;5065718;28;20210;-67
2022/07/21 04:32:21;;;;;;;8.23;5.97;;;20.10;99.90;;;;;;5063341;28;20212;-67
2022/07/21 04:34:47;;;;;;;9.30;6.53;;;20.10;99.90;;;;;;5058132;28;20203;-67
2022/07/21 04:37:14;;;;;;;6.17;5.17;;;20.20;99.90;;;;;;5064837;28;20194;-67
2022/07/21 04:39:41;;;;;;;8.13;6.13;;;20.20;99.90;;;;;;5062950;28;20233;-67
2022/07/21 04:42:08;;;;;;;7.82;6.10;;;20.30;99.90;;;;;;5045503;28;20229;-69
2022/07/21 04:44:34;;;;;;;9.53;6.57;;;20.30;99.90;;;;;;5058065;28;20560;-67
2022/07/21 04:47:01;;;;;;;9.10;6.10;;;20.40;99.90;;;;;;5055430;28;20614;-67
2022/07/21 04:49:28;;;;;;;9.95;7.03;;;20.50;99.90;;;;;;5053946;28;20598;-68
2022/07/21 04:51:54;;;;;;;8.40;6.47;;;20.50;99.90;;;;;;5061715;28;20214;-67
2022/07/21 04:54:30;;;;;;;7.73;6.10;;;20.60;99.90;;;;;;5056821;28;20644;-67
2022/07/21 04:56:56;;;;;;;8.80;6.82;;;20.60;99.90;;;;;;5067678;28;20623;-67
2022/07/21 04:59:24;;;;;;;9.05;6.50;;;20.70;99.90;;;;;;5060311;28;20217;-68
2022/07/21 05:01:51;;;;;;;7.75;6.70;;;20.90;99.90;;;;;;5063628;28;20226;-67
2022/07/21 05:04:18;;;;;;;8.35;6.35;;;21.10;99.90;;;;;;5063802;28;20224;-68
2022/07/21 05:06:44;;;;;;;9.48;6.18;;;21.30;99.90;;;;;;5063860;28;20690;-67
2022/07/21 05:09:11;;;;;;;7.40;6.05;;;21.70;99.90;;;;;;5060372;28;20194;-68
2022/07/21 05:11:38;;;;;;;7.43;6.00;;;21.80;99.90;;;;;;5070514;28;20229;-66
2022/07/21 05:14:04;;;;;;;8.45;6.65;;;21.90;99.90;;;;;;5060397;28;20782;-67
2022/07/21 05:16:41;;;;;;;9.68;6.28;;;21.80;99.90;;;;;;5066979;28;20232;-67
2022/07/21 05:19:07;;;;;;;8.65;6.45;;;21.70;99.90;;;;;;5055665;28;20218;-67
2022/07/21 05:21:34;;;;;;;10.88;6.30;;;21.70;99.90;;;;;;5060265;28;20218;-68
2022/07/21 05:24:01;;;;;;;7.82;6.40;;;21.60;99.90;;;;;;5053323;28;20190;-67
2022/07/21 05:26:27;;;;;;;8.25;6.38;;;21.70;99.90;;;;;;5063514;28;20209;-69
2022/07/21 05:28:54;;;;;;;9.13;6.63;;;21.70;99.90;;;;;;5060510;28;20202;-66
2022/07/21 05:31:22;;;;;;;10.38;6.97;;;21.70;99.90;;;;;;5064219;28;20704;-66
2022/07/21 05:33:48;;;;;;;9.45;6.72;;;21.70;99.90;;;;;;5057442;28;20198;-66
2022/07/21 05:36:15;;;;;;;8.75;6.20;;;21.80;99.90;;;;;;5045547;28;20634;-66
2022/07/21 05:38:42;;;;;;;7.88;6.13;;;21.90;99.90;;;;;;5063568;28;20567;-66
2022/07/21 05:41:09;;;;;;;8.55;6.20;;;21.90;99.90;;;;;;5058465;28;20232;-65
2022/07/21 05:43:36;;;;;;;9.27;5.97;;;22.00;99.90;;;;;;5059539;28;20850;-65
2022/07/21 05:46:02;;;;;;;8.52;6.13;;;21.90;99.90;;;;;;5064315;28;20675;-66
2022/07/21 05:48:29;;;;;;;9.13;6.10;;;22.10;99.90;;;;;;5059304;28;20214;-66
2022/07/21 05:50:56;;;;;;;8.90;6.55;;;22.30;99.90;;;;;;5054048;28;20226;-66
2022/07/21 05:53:22;;;;;;;7.32;5.57;;;22.80;99.90;;;;;;5046121;28;20195;-66
2022/07/21 05:55:49;;;;;;;8.15;6.43;;;23.20;99.90;;;;;;5050559;28;20266;-66
2022/07/21 05:58:18;;;;;;;8.18;5.97;;;23.40;99.90;;;;;;5057387;28;20617;-66
2022/07/21 06:01:07;;;;;;;9.55;7.50;;;23.70;99.90;;;;;;5064252;28;20214;-67
2022/07/21 06:03:32;;;;;;;8.90;6.22;;;23.60;99.90;;;;;;5068726;28;20566;-66
2022/07/21 06:05:59;;;;;;;9.95;6.38;;;23.50;99.90;;;;;;5061538;28;20201;-65
2022/07/21 06:08:25;;;;;;;8.63;6.18;;;23.50;99.90;;;;;;5063383;28;20197;-65
2022/07/21 06:10:52;;;;;;;9.18;6.63;;;23.50;99.90;;;;;;5066838;28;20226;-66
2022/07/21 06:13:18;;;;;;;9.43;6.10;;;23.40;99.90;;;;;;5061400;28;20546;-66
2022/07/21 06:15:45;;;;;;;9.70;7.00;;;23.30;99.90;;;;;;5060342;28;20205;-66
2022/07/21 06:18:12;;;;;;;10.20;6.18;;;23.20;99.90;;;;;;5061248;28;20206;-67
2022/07/21 06:20:39;;;;;;;12.80;6.85;;;23.20;99.90;;;;;;5061210;28;20218;-66
2022/07/21 06:23:06;;;;;;;7.75;6.70;;;23.00;99.90;;;;;;5065641;28;20203;-66
2022/07/21 06:25:33;;;;;;;10.18;6.75;;;22.90;99.90;;;;;;5058478;28;20198;-66
2022/07/21 06:28:00;;;;;;;9.30;6.72;;;22.60;99.90;;;;;;5062918;28;20198;-66
2022/07/21 06:30:26;;;;;;;9.70;6.38;;;22.50;99.90;;;;;;5063484;28;20308;-66
2022/07/21 06:32:53;;;;;;;10.55;6.97;;;22.30;99.90;;;;;;5061318;28;20285;-66
2022/07/21 06:35:20;;;;;;;9.05;6.95;;;22.20;99.90;;;;;;5062291;28;20573;-66
2022/07/21 06:37:47;;;;;;;9.30;7.00;;;22.10;99.90;;;;;;5064212;28;20198;-66
2022/07/21 06:40:15;;;;;;;10.10;6.55;;;22.20;99.90;;;;;;5054708;28;20619;-65
2022/07/21 06:42:42;;;;;;;9.45;7.15;;;22.40;99.90;;;;;;5065948;28;20225;-66
2022/07/21 06:45:28;;;;;;;8.95;7.03;;;22.60;99.90;;;;;;5058328;28;20257;-65
2022/07/21 06:48:06;;;;;;;7.63;6.30;;;22.80;99.90;;;;;;5062643;28;20191;-68
2022/07/21 06:50:33;;;;;;;10.13;6.10;;;23.10;99.90;;;;;;5068955;28;20252;-67
2022/07/21 06:53:01;;;;;;;12.23;6.07;;;23.70;99.90;;;;;;5066739;28;20201;-65
2022/07/21 06:55:27;;;;;;;10.57;6.70;;;24.30;99.90;;;;;;5057898;28;20195;-65
2022/07/21 06:57:54;;;;;;;8.05;6.32;;;24.30;99.90;;;;;;5057559;28;20202;-66
2022/07/21 07:00:21;;;;;;;9.55;6.25;;;24.40;99.90;;;;;;5060568;28;20234;-66
2022/07/21 07:02:49;;;;;;;7.95;6.32;;;24.50;99.90;;;;;;5062367;28;20593;-65
2022/07/21 07:05:16;;;;;;;8.57;6.32;;;24.70;99.90;;;;;;5060137;28;20198;-66
2022/07/21 07:07:43;;;;;;;8.60;6.13;;;24.80;99.90;;;;;;5058310;28;20198;-65
2022/07/21 07:10:11;;;;;;;9.43;6.05;;;25.10;99.90;;;;;;5059946;28;20214;-65
2022/07/21 07:12:38;;;;;;;10.32;6.20;;;25.90;99.90;;;;;;5060710;28;20201;-66
2022/07/21 07:15:25;;;;;;;8.00;5.53;;;26.50;99.90;;;;;;5061709;28;20689;-65
2022/07/21 07:17:52;;;;;;;8.38;5.78;;;26.40;99.90;;;;;;5064663;28;20585;-66
2022/07/21 07:20:19;;;;;;;9.05;5.43;;;26.50;99.90;;;;;;5053794;28;20699;-64
2022/07/21 07:22:46;;;;;;;14.48;6.88;;;26.50;99.90;;;;;;5064728;28;20217;-65
2022/07/21 07:25:16;;;;;;;8.20;5.70;;;26.40;99.90;;;;;;5064303;28;20701;-66
2022/07/21 07:27:45;;;;;;;8.70;5.63;;;26.30;99.90;;;;;;5060259;28;20199;-66
2022/07/21 07:30:12;;;;;;;6.70;5.30;;;26.30;99.90;;;;;;5064736;28;20219;-67
2022/07/21 07:32:40;;;;;;;7.72;5.63;;;26.70;99.90;;;;;;5062165;28;20213;-66
2022/07/21 07:35:11;;;;;;;8.65;5.57;;;27.20;99.90;;;;;;5061988;28;20201;-66
2022/07/21 07:37:40;;;;;;;8.73;5.60;;;27.50;99.90;;;;;;5062699;28;20299;-65
2022/07/21 07:40:10;;;;;;;5.45;4.80;;;28.00;99.90;;;;;;5060692;28;20220;-65
2022/07/21 07:42:38;;;;;;;5.85;4.93;;;28.00;99.90;;;;;;5056439;28;20234;-65
2022/07/21 07:45:07;;;;;;;9.13;5.50;;;28.00;99.90;;;;;;5059389;28;20194;-66
2022/07/21 07:47:34;;;;;;;5.65;4.60;;;27.90;99.90;;;;;;5070917;28;20194;-65
2022/07/21 07:50:01;;;;;;;6.28;5.10;;;28.20;99.90;;;;;;5062062;28;20207;-66
2022/07/21 07:52:28;;;;;;;7.22;5.07;;;28.00;99.90;;;;;;5066431;28;20233;-65
2022/07/21 07:54:55;;;;;;;9.32;5.28;;;28.00;99.90;;;;;;5063679;28;20198;-66
2022/07/21 07:57:22;;;;;;;7.38;5.40;;;27.40;99.90;;;;;;5064429;28;20199;-66
2022/07/21 07:59:51;;;;;;;7.00;5.40;;;27.10;99.90;;;;;;5060980;28;20202;-67
2022/07/21 08:02:18;;;;;;;7.75;5.25;;;27.00;99.90;;;;;;5054564;28;20776;-66
2022/07/21 08:04:45;;;;;;;9.32;4.78;;;27.10;99.90;;;;;;5065575;28;20247;-66
2022/07/21 08:07:11;;;;;;;6.88;5.15;;;27.50;99.90;;;;;;5057154;28;20194;-67
2022/07/21 08:09:39;;;;;;;8.25;4.95;;;28.20;99.90;;;;;;5054323;28;20201;-67
2022/07/21 08:12:06;;;;;;;8.25;5.30;;;28.70;99.90;;;;;;5050602;28;20202;-67
2022/07/21 08:14:33;;;;;;;6.90;4.70;;;29.00;99.90;;;;;;5058210;28;20306;-67
2022/07/21 08:17:00;;;;;;;6.47;5.20;;;29.10;99.90;;;;;;5062091;28;20202;-67
2022/07/21 08:19:27;;;;;;;7.82;5.15;;;29.30;99.90;;;;;;5055268;28;20280;-67
2022/07/21 08:21:53;;;;;;;6.05;4.43;;;29.60;99.90;;;;;;5058856;28;20218;-67
2022/07/21 08:24:39;;;;;;;7.25;5.10;;;29.20;99.90;;;;;;5059520;28;20198;-67
2022/07/21 08:27:05;;;;;;;6.07;4.80;;;29.10;99.90;;;;;;5058312;28;20197;-67
2022/07/21 08:29:32;;;;;;;7.35;5.32;;;28.90;99.90;;;;;;5058106;28;20548;-67
2022/07/21 08:31:59;;;;;;;6.38;5.32;;;28.70;99.90;;;;;;5061295;28;20588;-66
2022/07/21 08:34:27;;;;;;;7.70;5.32;;;28.40;99.90;;;;;;5067512;28;20194;-66
2022/07/21 08:36:54;;;;;;;7.93;5.28;;;27.80;99.90;;;;;;5062236;28;20198;-66
2022/07/21 08:39:21;;;;;;;6.25;5.05;;;27.30;99.90;;;;;;5059242;28;20209;-66
2022/07/21 08:41:48;;;;;;;7.95;5.43;;;27.00;99.90;;;;;;5058469;28;20237;-66
2022/07/21 08:44:19;;;;;;;7.35;5.50;;;26.70;99.90;;;;;;5061535;28;20194;-67
2022/07/21 08:46:49;;;;;;;7.95;5.97;;;26.80;99.90;;;;;;5063451;28;20222;-67
2022/07/21 08:49:21;;;;;;;9.63;5.38;;;26.70;99.90;;;;;;5065493;28;20244;-66
2022/07/21 08:51:51;;;;;;;7.57;5.30;;;26.60;99.90;;;;;;5064734;28;20632;-66
2022/07/21 08:54:20;;;;;;;6.88;5.97;;;26.70;99.90;;;;;;5064976;28;20198;-66
2022/07/21 08:56:47;;;;;;;6.72;5.30;;;26.80;99.90;;;;;;5067231;28;20194;-67
2022/07/21 08:59:14;;;;;;;5.47;4.65;;;26.90;99.90;;;;;;5064332;28;20220;-67
2022/07/21 09:01:43;;;;;;;7.90;4.95;;;26.60;99.90;;;;;;5056348;28;20273;-66
2022/07/21 09:04:25;;;;;;;6.50;4.75;;;26.50;99.90;;;;;;5059057;28;20194;-67
2022/07/21 09:07:00;;;;;;;6.03;4.75;;;26.60;99.90;;;;;;5071467;28;20243;-68
2022/07/21 09:09:29;;;;;;;6.88;4.32;;;27.00;99.90;;;;;;5056898;28;20655;-68
2022/07/21 09:11:57;;;;;;;7.07;4.55;;;27.40;99.90;;;;;;5062086;28;20198;-68
2022/07/21 09:14:26;;;;;;;4.88;4.38;;;28.00;99.90;;;;;;5058947;28;20202;-68
2022/07/21 09:17:11;;;;;;;8.48;4.00;;;28.30;99.90;;;;;;5060134;28;20202;-68
2022/07/21 09:19:45;;;;;;;5.32;3.97;;;28.90;99.90;;;;;;5052691;28;20206;-68
2022/07/21 09:22:16;;;;;;;4.13;3.60;;;29.30;99.90;;;;;;5055585;28;20969;-68
2022/07/21 09:24:49;;;;;;;6.75;3.80;;;29.10;99.90;;;;;;5058016;28;20195;-68
2022/07/21 09:27:25;;;;;;;7.55;3.70;;;29.10;99.90;;;;;;5053391;28;20194;-68
2022/07/21 09:30:00;;;;;;;7.38;3.53;;;29.00;99.90;;;;;;5059886;28;20671;-68
2022/07/21 09:32:28;;;;;;;5.65;4.03;;;28.80;99.90;;;;;;5055181;28;20227;-68
2022/07/21 09:35:00;;;;;;;4.40;4.00;;;28.70;99.90;;;;;;5064262;28;20195;-68
2022/07/21 09:37:33;;;;;;;4.93;3.85;;;28.80;99.90;;;;;;5062555;28;20575;-68
2022/07/21 09:40:07;;;;;;;5.63;3.35;;;29.00;99.90;;;;;;5072740;28;20220;-68
2022/07/21 09:42:37;;;;;;;6.40;3.15;;;29.00;99.90;;;;;;5056802;28;20287;-69
2022/07/21 09:45:07;;;;;;;5.43;3.38;;;29.20;99.90;;;;;;5059204;28;20677;-68
2022/07/21 09:47:35;;;;;;;4.95;3.50;;;29.00;99.90;;;;;;5065270;28;20283;-69
2022/07/21 09:50:02;;;;;;;4.05;3.42;;;29.00;99.90;;;;;;5054613;28;20221;-68
2022/07/21 09:52:53;;;;;;;4.90;3.28;;;29.00;99.90;;;;;;5059538;28;21141;-68
2022/07/21 09:55:20;;;;;;;4.70;3.80;;;29.00;99.90;;;;;;5056666;28;20208;-68
2022/07/21 09:57:47;;;;;;;4.15;3.65;;;28.90;99.90;;;;;;5071079;28;20202;-68
2022/07/21 10:00:17;;;;;;;3.53;3.22;;;28.70;99.90;;;;;;5064207;28;20225;-68
2022/07/21 10:02:46;;;;;;;3.60;3.30;;;28.30;99.90;;;;;;5069805;28;20225;-68
2022/07/21 10:05:18;;;;;;;4.45;3.42;;;28.30;99.90;;;;;;5057950;28;20333;-68
2022/07/21 10:07:48;;;;;;;4.07;3.40;;;28.40;99.90;;;;;;5069377;28;20201;-68
2022/07/21 10:10:16;;;;;;;5.25;3.20;;;28.70;99.90;;;;;;5063610;28;20218;-68
2022/07/21 10:12:47;;;;;;;3.97;3.58;;;28.70;99.90;;;;;;5058647;28;20198;-68
2022/07/21 10:15:15;;;;;;;4.95;3.47;;;28.40;99.90;;;;;;5053928;28;20208;-68
2022/07/21 10:17:44;;;;;;;5.30;3.13;;;28.10;99.90;;;;;;5062826;28;20202;-68
2022/07/21 10:20:15;;;;;;;4.38;3.50;;;28.30;99.90;;;;;;5067395;28;20217;-68
2022/07/21 10:23:16;;;;;;;3.83;3.20;;;28.50;99.90;;;;;;5060491;28;20224;-68
2022/07/21 10:25:47;;;;;;;3.58;3.28;;;28.70;99.90;;;;;;5067406;28;20267;-68
2022/07/21 10:28:13;;;;;;;3.70;3.13;;;28.90;99.90;;;;;;5059155;28;20186;-68
2022/07/21 10:30:51;;;;;;;3.70;3.10;;;28.90;99.90;;;;;;5061339;28;20224;-68
2022/07/21 10:33:20;;;;;;;5.85;3.78;;;28.60;99.90;;;;;;5060930;28;20218;-68
2022/07/21 10:35:49;;;;;;;4.65;3.30;;;28.20;99.90;;;;;;5065097;28;20202;-68
2022/07/21 10:38:28;;;;;;;3.50;2.92;;;27.70;99.90;;;;;;5061298;28;20205;-69
2022/07/21 10:40:56;;;;;;;4.15;2.72;;;27.60;99.90;;;;;;5058497;28;20219;-68
2022/07/21 10:43:28;;;;;;;3.53;2.70;;;27.60;99.90;;;;;;5047564;28;20272;-68
2022/07/21 10:45:56;;;;;;;3.17;2.88;;;28.00;99.90;;;;;;5051044;28;20191;-67
2022/07/21 10:48:37;;;;;;;5.13;3.10;;;28.10;99.90;;;;;;5060851;28;20256;-67
2022/07/21 10:51:08;;;;;;;3.78;3.00;;;28.40;99.90;;;;;;5056100;28;20491;-67
2022/07/21 10:53:35;;;;;;;7.10;3.17;;;28.30;99.90;;;;;;5049977;28;20199;-66
2022/07/21 10:56:03;;;;;;;3.65;2.83;;;28.20;99.90;;;;;;5052356;28;20193;-66
2022/07/21 10:58:40;;;;;;;4.60;2.90;;;28.00;99.90;;;;;;5057652;28;20202;-66
2022/07/21 11:01:20;;;;;;;3.70;2.92;;;27.90;99.90;;;;;;5062346;28;20225;-66
2022/07/21 11:04:08;;;;;;;3.35;3.05;;;27.80;99.90;;;;;;5058507;28;20305;-66
2022/07/21 11:06:37;;;;;;;3.70;3.13;;;27.60;99.90;;;;;;5060113;28;20210;-66
2022/07/21 11:09:04;;;;;;;5.13;3.17;;;27.70;99.90;;;;;;5057109;28;20194;-66
2022/07/21 11:11:34;;;;;;;4.20;2.95;;;27.70;99.90;;;;;;5066351;28;20696;-66
2022/07/21 11:14:00;;;;;;;6.07;2.80;;;27.80;99.90;;;;;;5059229;28;20198;-66
2022/07/21 11:16:56;;;;;;;3.25;2.80;;;27.70;99.90;;;;;;5070199;28;20217;-66
2022/07/21 11:19:42;;;;;;;5.13;3.17;;;27.30;99.90;;;;;;5060535;28;20240;-66
2022/07/21 11:22:21;;;;;;;6.97;3.40;;;27.10;99.90;;;;;;5055305;28;20197;-67
2022/07/21 11:24:49;;;;;;;5.95;3.20;;;27.10;99.90;;;;;;5069811;28;20196;-67
2022/07/21 11:27:21;;;;;;;9.02;3.35;;;27.20;99.90;;;;;;5059985;28;20187;-67
2022/07/21 11:29:51;;;;;;;4.57;3.30;;;27.20;99.90;;;;;;5052856;28;20287;-67
2022/07/21 11:32:19;;;;;;;8.57;3.67;;;27.40;99.90;;;;;;5060386;28;20202;-67
2022/07/21 11:34:47;;;;;;;6.70;3.30;;;27.90;99.90;;;;;;5052837;28;20194;-67
2022/07/21 11:37:17;;;;;;;4.38;3.72;;;28.20;99.90;;;;;;5061643;28;20202;-67
2022/07/21 11:40:12;;;;;;;4.72;3.10;;;28.40;99.90;;;;;;5084100;28;20222;-67
2022/07/21 11:42:41;;;;;;;4.30;3.70;;;28.40;99.90;;;;;;5060630;28;20226;-67
2022/07/21 11:45:09;;;;;;;5.45;3.90;;;28.50;99.90;;;;;;5061516;28;20203;-67
2022/07/21 11:47:35;;;;;;;8.32;3.78;;;28.70;99.90;;;;;;5057936;28;20252;-67
2022/07/21 11:50:06;;;;;;;5.43;3.80;;;28.80;99.90;;;;;;5057717;28;20218;-67
2022/07/21 11:52:36;;;;;;;5.10;4.10;;;28.80;99.90;;;;;;5059114;28;20194;-67
2022/07/21 11:55:06;;;;;;;5.82;3.80;;;29.00;99.90;;;;;;5055170;28;20252;-67
2022/07/21 11:57:34;;;;;;;7.85;4.30;;;28.90;99.90;;;;;;5060291;28;20209;-67
2022/07/21 12:00:06;;;;;;;5.88;4.00;;;29.10;99.90;;;;;;5062807;28;20224;-67
2022/07/21 12:02:33;;;;;;;4.35;3.95;;;29.50;99.90;;;;;;5050470;28;20675;-67
2022/07/21 12:05:03;;;;;;;5.05;3.83;;;29.50;99.90;;;;;;5051452;28;20221;-67
2022/07/21 12:07:49;;;;;;;4.68;4.13;;;29.40;99.90;;;;;;5051961;28;20252;-67
2022/07/21 12:10:24;;;;;;;9.07;4.50;;;29.10;99.90;;;;;;5050685;28;20210;-67
2022/07/21 12:12:51;;;;;;;5.82;4.25;;;29.00;99.90;;;;;;5051420;28;20634;-67
2022/07/21 12:15:28;;;;;;;5.88;4.22;;;28.80;99.90;;;;;;5083005;28;20276;-67
2022/07/21 12:18:18;;;;;;;6.03;5.25;;;29.00;99.90;;;;;;5053890;28;20206;-67
2022/07/21 12:20:46;;;;;;;8.05;4.72;;;29.10;99.90;;;;;;5055422;28;20245;-67
2022/07/21 12:23:27;;;;;;;5.82;4.65;;;28.90;99.90;;;;;;5051267;28;20211;-67
2022/07/21 12:25:56;;;;;;;7.07;4.68;;;29.00;99.90;;;;;;5064110;28;20191;-68
2022/07/21 12:28:47;;;;;;;5.63;4.50;;;29.30;99.90;;;;;;5045280;28;20195;-67
2022/07/21 12:31:20;;;;;;;6.35;4.50;;;29.60;99.90;;;;;;5062328;28;20314;-67
2022/07/21 12:33:48;;;;;;;10.15;4.75;;;29.60;99.90;;;;;;5058943;28;20216;-67
2022/07/21 12:36:36;;;;;;;4.80;4.30;;;29.80;99.90;;;;;;5048860;28;20198;-67
2022/07/21 12:40:01;;;;;;;7.03;4.43;;;30.20;99.90;;;;;;5063115;28;20209;-67
2022/07/21 12:42:05;;;;;;;5.72;4.20;;;30.60;99.90;;;;;;5052075;28;20206;-67
2022/07/21 12:44:32;;;;;;;4.40;3.97;;;30.70;99.90;;;;;;5060810;28;20230;-66
2022/07/21 12:47:20;;;;;;;11.75;4.25;;;30.50;99.90;;;;;;5053058;28;20202;-68
2022/07/21 12:50:05;;;;;;;7.95;4.15;;;30.40;99.90;;;;;;5056471;28;20675;-67
2022/07/21 12:52:48;;;;;;;6.57;4.10;;;30.30;99.90;;;;;;5048818;28;20199;-67
2022/07/21 12:55:15;;;;;;;7.05;4.22;;;30.10;99.90;;;;;;5052939;28;20274;-67
2022/07/21 12:57:42;;;;;;;6.30;4.00;;;30.20;99.90;;;;;;5050366;28;20205;-67